Time;durP1;ratioP1;P1;durP2;ratioP2;P2;SDS_P1;SDS_P2;PMS_P1;PMS_P2;Temp;Humidity;BMP_temperature;BMP_pressure;BME280_temperature;BME280_humidity;BME280_pressure;Samples;Min_cycle;Max_cycle;Signal;HPM_P1;HPM_P2
2022/10/19 00:00:48;;;;;;;30.45;16.00;;;;;;;;;;5056492;28;20104;-73
2022/10/19 00:03:15;;;;;;;35.90;18.92;;;;;;;;;;5056894;28;20029;-74
2022/10/19 00:05:41;;;;;;;31.95;16.88;;;;;;;;;;5039023;28;20494;-74
2022/10/19 00:08:07;;;;;;;25.48;14.80;;;;;;;;;;5056734;28;20048;-74
2022/10/19 00:10:34;;;;;;;25.00;13.93;;;;;;;;;;5056873;28;20025;-74
2022/10/19 00:13:00;;;;;;;22.73;13.98;;;;;;;;;;5056649;28;20078;-74
2022/10/19 00:15:26;;;;;;;26.15;15.07;;;;;;;;;;5056688;28;20025;-74
2022/10/19 00:17:52;;;;;;;24.33;14.73;;;;;;;;;;5056505;28;20120;-74
2022/10/19 00:20:18;;;;;;;26.58;13.23;;;;;;;;;;5039035;28;20036;-74
2022/10/19 00:22:44;;;;;;;21.20;13.82;;;;;;;;;;5056391;28;20045;-74
2022/10/19 00:25:10;;;;;;;28.52;13.20;;;;;;;;;;5056575;28;20028;-74
2022/10/19 00:27:37;;;;;;;24.80;15.05;;;;;;;;;;5038657;28;20324;-74
2022/10/19 00:30:04;;;;;;;19.95;13.43;;;;;;;;;;5056635;28;20112;-74
2022/10/19 00:32:30;;;;;;;23.65;13.20;;;;;;;;;;5060370;28;20129;-74
2022/10/19 00:34:56;;;;;;;26.80;13.68;;;;;;;;;;5042442;28;20069;-74
2022/10/19 00:37:22;;;;;;;20.00;13.07;;;;;;;;;;5060158;28;20056;-74
2022/10/19 00:39:48;;;;;;;25.55;13.63;;;;;;;;;;5060370;28;20112;-74
2022/10/19 00:42:14;;;;;;;24.92;13.88;;;;;;;;;;5060104;28;20055;-74
2022/10/19 00:44:40;;;;;;;26.30;15.20;;;;;;;;;;5060214;28;20025;-73
2022/10/19 00:47:06;;;;;;;19.55;13.70;;;;;;;;;;5060143;28;20018;-74
2022/10/19 00:49:35;;;;;;;21.25;13.95;;;;;;;;;;5060090;28;20361;-74
2022/10/19 00:52:03;;;;;;;25.98;14.30;;;;;;;;;;5060168;28;20070;-73
2022/10/19 00:54:31;;;;;;;83.57;28.55;;;;;;;;;;5042275;28;20032;-73
2022/10/19 00:56:57;;;;;;;71.82;24.88;;;;;;;;;;5060073;28;20025;-74
2022/10/19 00:59:24;;;;;;;61.05;21.17;;;;;;;;;;5059730;28;20044;-73
2022/10/19 01:01:51;;;;;;;33.13;16.95;;;;;;;;;;5059911;28;20025;-73
2022/10/19 01:04:19;;;;;;;34.92;16.67;;;;;;;;;;5059879;28;20029;-73
2022/10/19 01:06:45;;;;;;;37.92;15.43;;;;;;;;;;5059878;28;20304;-74
2022/10/19 01:09:11;;;;;;;37.17;16.58;;;;;;;;;;5059688;28;20422;-74
2022/10/19 01:11:43;;;;;;;36.45;15.48;;;;;;;;;;5059515;28;20032;-73
2022/10/19 01:14:09;;;;;;;;;;;;;;;;;;5059940;28;20053;-73
2022/10/19 01:16:44;;;;;;;31.80;15.18;;;;;;;;;;5059632;28;19939;-74
2022/10/19 01:19:19;;;;;;;37.50;16.77;;;;;;;;;;5059504;28;20048;-73
2022/10/19 01:21:50;;;;;;;30.05;14.20;;;;;;;;;;5041882;28;20061;-74
2022/10/19 01:24:23;;;;;;;35.35;14.77;;;;;;;;;;5059155;28;20056;-73
2022/10/19 01:27:02;;;;;;;25.63;13.80;;;;;;;;;;5059351;28;20100;-73
2022/10/19 01:29:40;;;;;;;25.00;13.63;;;;;;;;;;5059291;28;20056;-73
2022/10/19 01:32:08;;;;;;;22.42;13.35;;;;;;;;;;5059265;28;20021;-74
2022/10/19 01:34:41;;;;;;;30.10;15.02;;;;;;;;;;5041569;28;20035;-73
2022/10/19 01:37:07;;;;;;;31.83;15.15;;;;;;;;;;5059339;28;20036;-73
2022/10/19 01:39:36;;;;;;;36.20;16.98;;;;;;;;;;5059270;28;20388;-73
2022/10/19 01:42:14;;;;;;;28.48;15.77;;;;;;;;;;5058550;28;20088;-73
2022/10/19 01:44:48;;;;;;;27.15;15.05;;;;;;;;;;5059163;28;20025;-73
2022/10/19 01:47:19;;;;;;;26.13;15.48;;;;;;;;;;5041325;28;20427;-73
2022/10/19 01:50:18;;;;;;;23.05;13.75;;;;;;;;;;5058972;28;20025;-73
2022/10/19 01:52:44;;;;;;;25.25;13.70;;;;;;;;;;4978247;28;20085;-74
2022/10/19 01:55:13;;;;;;;25.13;13.98;;;;;;;;;;4978275;28;20031;-74
2022/10/19 01:57:45;;;;;;;22.95;13.40;;;;;;;;;;4978123;28;20422;-73
2022/10/19 02:00:12;;;;;;;23.05;13.48;;;;;;;;;;4977792;28;20038;-74
2022/10/19 02:02:41;;;;;;;25.27;13.18;;;;;;;;;;4978241;28;20073;-73
2022/10/19 02:05:08;;;;;;;23.05;12.95;;;;;;;;;;4978248;28;20043;-74
2022/10/19 02:07:34;;;;;;;20.70;12.45;;;;;;;;;;4978079;28;20401;-74
2022/10/19 02:10:00;;;;;;;22.45;12.63;;;;;;;;;;4977900;28;20035;-74
2022/10/19 02:12:28;;;;;;;23.73;13.30;;;;;;;;;;4977969;28;20034;-74
2022/10/19 02:14:56;;;;;;;26.48;13.25;;;;;;;;;;4977944;28;20031;-74
2022/10/19 02:17:25;;;;;;;22.58;12.52;;;;;;;;;;4978003;28;20027;-74
2022/10/19 02:19:53;;;;;;;22.30;12.90;;;;;;;;;;4977746;28;20337;-73
2022/10/19 02:22:19;;;;;;;22.20;13.43;;;;;;;;;;4977610;28;20187;-73
2022/10/19 02:24:45;;;;;;;27.00;13.57;;;;;;;;;;4977761;28;20075;-74
2022/10/19 02:27:11;;;;;;;37.60;19.05;;;;;;;;;;4981650;28;20182;-73
2022/10/19 02:29:38;;;;;;;49.10;23.55;;;;;;;;;;5057857;28;20028;-74
2022/10/19 02:32:04;;;;;;;57.17;28.60;;;;;;;;;;5058117;28;20028;-73
2022/10/19 02:34:30;;;;;;;70.93;33.05;;;;;;;;;;5058002;28;20017;-73
2022/10/19 02:36:56;;;;;;;48.70;24.15;;;;;;;;;;5058236;28;20307;-74
2022/10/19 02:39:23;;;;;;;51.55;28.38;;;;;;;;;;5057904;28;20116;-74
2022/10/19 02:41:52;;;;;;;48.92;25.38;;;;;;;;;;5057976;28;20052;-74
2022/10/19 02:44:21;;;;;;;38.22;19.92;;;;;;;;;;5057869;28;20052;-73
2022/10/19 02:47:07;;;;;;;47.95;23.52;;;;;;;;;;5057783;28;20354;-73
2022/10/19 02:49:34;;;;;;;42.47;22.20;;;;;;;;;;5057539;28;20032;-74
2022/10/19 02:52:02;;;;;;;38.00;19.75;;;;;;;;;;5057778;28;20021;-74
2022/10/19 02:54:28;;;;;;;38.55;19.70;;;;;;;;;;5057324;28;20056;-74
2022/10/19 02:56:55;;;;;;;39.00;19.52;;;;;;;;;;5057793;28;20049;-73
2022/10/19 02:59:21;;;;;;;35.92;18.48;;;;;;;;;;5057579;28;20021;-74
2022/10/19 03:01:47;;;;;;;41.65;20.05;;;;;;;;;;5057564;28;20027;-73
2022/10/19 03:04:13;;;;;;;36.38;19.95;;;;;;;;;;5057809;28;20014;-74
2022/10/19 03:06:39;;;;;;;81.95;34.97;;;;;;;;;;5057506;28;20025;-73
2022/10/19 03:09:05;;;;;;;141.82;54.70;;;;;;;;;;5057571;28;20098;-73
2022/10/19 03:11:31;;;;;;;99.07;40.17;;;;;;;;;;5057374;28;20104;-74
2022/10/19 03:13:57;;;;;;;61.20;28.05;;;;;;;;;;5057344;28;20122;-74
2022/10/19 03:16:23;;;;;;;82.05;36.30;;;;;;;;;;5057722;28;20413;-73
2022/10/19 03:18:50;;;;;;;121.72;43.97;;;;;;;;;;5057349;28;20052;-74
2022/10/19 03:21:16;;;;;;;44.45;21.08;;;;;;;;;;5057424;28;20090;-74
2022/10/19 03:23:42;;;;;;;34.60;18.17;;;;;;;;;;5056831;28;20522;-74
2022/10/19 03:26:09;;;;;;;26.50;16.83;;;;;;;;;;5052365;28;20107;-74
2022/10/19 03:28:35;;;;;;;25.45;16.00;;;;;;;;;;5044952;28;20087;-73
2022/10/19 03:31:01;;;;;;;28.98;15.95;;;;;;;;;;5038240;28;20320;-74
2022/10/19 03:33:27;;;;;;;21.38;14.63;;;;;;;;;;5036945;28;20061;-74
2022/10/19 03:36:12;;;;;;;25.85;14.50;;;;;;;;;;5042436;28;20116;-73
2022/10/19 03:38:38;;;;;;;29.48;16.20;;;;;;;;;;5045471;28;20491;-74
2022/10/19 03:41:07;;;;;;;39.38;19.23;;;;;;;;;;5055449;28;20116;-74
2022/10/19 03:43:34;;;;;;;60.22;25.77;;;;;;;;;;5041152;28;20036;-73
2022/10/19 03:46:00;;;;;;;47.85;21.48;;;;;;;;;;5047263;28;20029;-73
2022/10/19 03:48:26;;;;;;;39.90;20.17;;;;;;;;;;5055136;28;20021;-74
2022/10/19 03:51:03;;;;;;;36.08;21.23;;;;;;;;;;5052998;28;20049;-74
2022/10/19 03:53:30;;;;;;;34.70;19.95;;;;;;;;;;5035818;28;20330;-74
2022/10/19 03:56:04;;;;;;;34.10;20.15;;;;;;;;;;5036914;28;20105;-74
2022/10/19 03:58:31;;;;;;;30.63;18.50;;;;;;;;;;5036936;28;20022;-73
2022/10/19 04:00:57;;;;;;;31.77;18.38;;;;;;;;;;5036888;28;20080;-73
2022/10/19 04:03:23;;;;;;;34.70;17.75;;;;;;;;;;5035414;28;20033;-74
2022/10/19 04:05:49;;;;;;;30.15;17.45;;;;;;;;;;5038409;28;20354;-74
2022/10/19 04:08:15;;;;;;;28.60;17.08;;;;;;;;;;5041089;28;20026;-74
2022/10/19 04:10:41;;;;;;;29.30;17.52;;;;;;;;;;5040743;28;20025;-74
2022/10/19 04:13:07;;;;;;;29.33;17.52;;;;;;;;;;5040808;28;20030;-74
2022/10/19 04:15:33;;;;;;;26.95;16.98;;;;;;;;;;5040732;28;20104;-74
2022/10/19 04:17:59;;;;;;;31.35;17.75;;;;;;;;;;5040954;28;20040;-74
2022/10/19 04:20:25;;;;;;;32.55;18.13;;;;;;;;;;5040586;28;20026;-74
2022/10/19 04:22:54;;;;;;;27.75;16.98;;;;;;;;;;5040448;28;20164;-73
2022/10/19 04:25:20;;;;;;;33.95;16.75;;;;;;;;;;5040675;28;20018;-74
2022/10/19 04:27:46;;;;;;;27.23;15.63;;;;;;;;;;5040600;28;20029;-74
2022/10/19 04:30:12;;;;;;;26.40;15.52;;;;;;;;;;5040159;28;20053;-74
2022/10/19 04:32:38;;;;;;;23.98;14.65;;;;;;;;;;5040546;28;20438;-74
2022/10/19 04:35:05;;;;;;;30.77;14.05;;;;;;;;;;5040408;28;20057;-74
2022/10/19 04:37:31;;;;;;;26.75;14.02;;;;;;;;;;5040417;28;20029;-74
2022/10/19 04:39:57;;;;;;;26.42;15.00;;;;;;;;;;5038746;28;20041;-74
2022/10/19 04:42:23;;;;;;;26.75;16.48;;;;;;;;;;5040262;28;20017;-74
2022/10/19 04:44:49;;;;;;;32.17;17.35;;;;;;;;;;5040190;28;20021;-74
2022/10/19 04:47:15;;;;;;;33.17;18.55;;;;;;;;;;5040468;28;20105;-74
2022/10/19 04:49:41;;;;;;;38.03;20.55;;;;;;;;;;5040216;28;20041;-74
2022/10/19 04:52:07;;;;;;;44.47;24.00;;;;;;;;;;5040076;28;20437;-73
2022/10/19 04:54:33;;;;;;;85.63;40.92;;;;;;;;;;5039052;28;20121;-73
2022/10/19 04:56:59;;;;;;;70.28;37.67;;;;;;;;;;5039982;28;20093;-74
2022/10/19 04:59:25;;;;;;;71.18;34.53;;;;;;;;;;5039853;28;20368;-74
2022/10/19 05:01:51;;;;;;;58.17;28.45;;;;;;;;;;5040044;28;20018;-74
2022/10/19 05:04:17;;;;;;;51.72;29.02;;;;;;;;;;5039920;28;20423;-73
2022/10/19 05:06:43;;;;;;;52.03;28.35;;;;;;;;;;5039633;28;20018;-74
2022/10/19 05:09:09;;;;;;;54.65;29.05;;;;;;;;;;5039618;28;20022;-74
2022/10/19 05:11:35;;;;;;;52.00;28.42;;;;;;;;;;5039909;28;20030;-74
2022/10/19 05:14:01;;;;;;;57.33;29.77;;;;;;;;;;5038408;28;20109;-73
2022/10/19 05:16:27;;;;;;;95.15;53.47;;;;;;;;;;5039214;28;20152;-73
2022/10/19 05:18:58;;;;;;;126.80;75.32;;;;;;;;;;5039803;28;20036;-73
2022/10/19 05:21:25;;;;;;;121.40;63.63;;;;;;;;;;5039716;28;20140;-74
2022/10/19 05:23:52;;;;;;;109.50;55.22;;;;;;;;;;5039529;28;20057;-73
2022/10/19 05:26:19;;;;;;;93.82;47.28;;;;;;;;;;5039530;28;20026;-73
2022/10/19 05:28:49;;;;;;;72.22;38.88;;;;;;;;;;5039410;28;20049;-74
2022/10/19 05:31:16;;;;;;;66.82;34.55;;;;;;;;;;5039491;28;20030;-74
2022/10/19 05:33:42;;;;;;;55.85;31.65;;;;;;;;;;5039384;28;20100;-74
2022/10/19 05:36:09;;;;;;;59.72;30.65;;;;;;;;;;5039495;28;20080;-74
2022/10/19 05:38:35;;;;;;;62.45;31.58;;;;;;;;;;5039217;28;20029;-73
2022/10/19 05:41:01;;;;;;;52.78;29.02;;;;;;;;;;5038945;28;20036;-73
2022/10/19 05:43:27;;;;;;;56.13;29.02;;;;;;;;;;5039225;28;20029;-73
2022/10/19 05:45:53;;;;;;;54.70;30.02;;;;;;;;;;5039089;28;20411;-73
2022/10/19 05:48:19;;;;;;;61.05;28.58;;;;;;;;;;5037697;28;20065;-74
2022/10/19 05:50:53;;;;;;;68.50;34.47;;;;;;;;;;5038979;28;20231;-74
2022/10/19 05:53:19;;;;;;;59.05;30.70;;;;;;;;;;5038815;28;20042;-73
2022/10/19 05:55:45;;;;;;;54.58;30.15;;;;;;;;;;5038973;28;20026;-73
2022/10/19 05:58:11;;;;;;;61.28;31.95;;;;;;;;;;5038794;28;20025;-73
2022/10/19 06:00:37;;;;;;;51.75;28.48;;;;;;;;;;5038779;28;20427;-73
2022/10/19 06:03:03;;;;;;;56.50;30.35;;;;;;;;;;5037316;28;20034;-73
2022/10/19 06:05:29;;;;;;;51.53;28.83;;;;;;;;;;5038856;28;20119;-73
2022/10/19 06:07:55;;;;;;;47.35;28.67;;;;;;;;;;5038677;28;20411;-73
2022/10/19 06:10:21;;;;;;;59.40;28.15;;;;;;;;;;5037215;28;20072;-73
2022/10/19 06:12:47;;;;;;;48.92;27.77;;;;;;;;;;5038607;28;20048;-73
2022/10/19 06:15:13;;;;;;;49.33;27.75;;;;;;;;;;5038481;28;20478;-73
2022/10/19 06:17:39;;;;;;;50.60;29.30;;;;;;;;;;5038342;28;20029;-73
2022/10/19 06:20:05;;;;;;;47.00;26.70;;;;;;;;;;5038408;28;20035;-73
2022/10/19 06:22:31;;;;;;;52.20;29.80;;;;;;;;;;5038434;28;20025;-73
2022/10/19 06:24:57;;;;;;;50.33;28.95;;;;;;;;;;5020835;28;20095;-74
2022/10/19 06:27:23;;;;;;;51.95;27.30;;;;;;;;;;5037928;28;20029;-74
2022/10/19 06:29:49;;;;;;;53.45;28.75;;;;;;;;;;5037668;28;20025;-73
2022/10/19 06:32:15;;;;;;;48.08;27.85;;;;;;;;;;5038263;28;20029;-73
2022/10/19 06:34:41;;;;;;;53.00;27.25;;;;;;;;;;5038271;28;20025;-73
2022/10/19 06:37:07;;;;;;;49.55;28.42;;;;;;;;;;5020992;28;20304;-73
2022/10/19 06:39:33;;;;;;;49.65;27.08;;;;;;;;;;5038242;28;20033;-73
2022/10/19 06:41:59;;;;;;;42.38;25.50;;;;;;;;;;5037984;28;20025;-73
2022/10/19 06:44:26;;;;;;;48.65;25.85;;;;;;;;;;5037981;28;20021;-73
2022/10/19 06:46:52;;;;;;;46.40;24.50;;;;;;;;;;5038166;28;20026;-73
2022/10/19 06:49:18;;;;;;;47.75;24.58;;;;;;;;;;5037857;28;20029;-74
2022/10/19 06:51:44;;;;;;;53.75;29.40;;;;;;;;;;5038143;28;20032;-72
2022/10/19 06:54:10;;;;;;;49.88;26.35;;;;;;;;;;5037935;28;20053;-73
2022/10/19 06:56:36;;;;;;;46.75;27.13;;;;;;;;;;5020334;28;20025;-73
2022/10/19 06:59:02;;;;;;;43.50;25.55;;;;;;;;;;5037801;28;20030;-73
2022/10/19 07:01:28;;;;;;;40.70;24.30;;;;;;;;;;5037490;28;20032;-73
2022/10/19 07:03:54;;;;;;;43.42;24.83;;;;;;;;;;5037861;28;20026;-73
2022/10/19 07:06:21;;;;;;;42.90;24.25;;;;;;;;;;5037639;28;20420;-74
2022/10/19 07:08:47;;;;;;;44.38;26.08;;;;;;;;;;5037852;28;20028;-73
2022/10/19 07:11:18;;;;;;;41.45;24.50;;;;;;;;;;5037486;28;20408;-73
2022/10/19 07:13:44;;;;;;;37.03;22.10;;;;;;;;;;5037405;28;20415;-73
2022/10/19 07:16:12;;;;;;;35.03;21.50;;;;;;;;;;5037590;28;20026;-73
2022/10/19 07:18:39;;;;;;;39.25;23.88;;;;;;;;;;5037531;28;20112;-73
2022/10/19 07:21:07;;;;;;;43.42;26.48;;;;;;;;;;5019822;28;20022;-74
2022/10/19 07:23:33;;;;;;;40.50;24.58;;;;;;;;;;5037309;28;20073;-73
2022/10/19 07:26:04;;;;;;;53.08;30.42;;;;;;;;;;5037271;28;20021;-73
2022/10/19 07:28:30;;;;;;;49.10;29.00;;;;;;;;;;5037124;28;20100;-73
2022/10/19 07:30:56;;;;;;;43.70;27.17;;;;;;;;;;5037454;28;20039;-73
2022/10/19 07:33:22;;;;;;;50.72;27.27;;;;;;;;;;5037410;28;20323;-73
2022/10/19 07:35:49;;;;;;;44.08;27.95;;;;;;;;;;5037556;28;20030;-74
2022/10/19 07:38:15;;;;;;;48.22;26.33;;;;;;;;;;5037071;28;20029;-74
2022/10/19 07:40:41;;;;;;;39.03;23.35;;;;;;;;;;5036907;28;20319;-73
2022/10/19 07:43:07;;;;;;;43.13;24.00;;;;;;;;;;5036969;28;20022;-74
2022/10/19 07:45:33;;;;;;;43.35;27.08;;;;;;;;;;5036714;28;20025;-74
2022/10/19 07:47:59;;;;;;;38.70;26.42;;;;;;;;;;5036887;28;20030;-73
2022/10/19 07:50:26;;;;;;;33.13;21.73;;;;;;;;;;5037165;28;20029;-73
2022/10/19 07:52:52;;;;;;;31.08;18.42;;;;;;;;;;5036987;28;20033;-74
2022/10/19 07:55:18;;;;;;;32.85;19.15;;;;;;;;;;5037116;28;20064;-74
2022/10/19 07:57:48;;;;;;;34.75;21.23;;;;;;;;;;5036772;28;20399;-73
2022/10/19 08:00:15;;;;;;;43.67;26.83;;;;;;;;;;5036589;28;20033;-72
2022/10/19 08:02:42;;;;;;;46.63;25.95;;;;;;;;;;5036837;28;20289;-73
2022/10/19 08:05:08;;;;;;;44.65;25.05;;;;;;;;;;5037004;28;20111;-74
2022/10/19 08:07:34;;;;;;;44.75;25.10;;;;;;;;;;5036758;28;20168;-74
2022/10/19 08:10:00;;;;;;;37.60;25.05;;;;;;;;;;5036868;28;20025;-74
2022/10/19 08:12:26;;;;;;;38.47;22.63;;;;;;;;;;5036753;28;20431;-74
2022/10/19 08:14:53;;;;;;;33.25;20.35;;;;;;;;;;5018806;28;20423;-74
2022/10/19 08:17:19;;;;;;;37.33;19.95;;;;;;;;;;5036623;28;20029;-74
2022/10/19 08:19:45;;;;;;;37.13;20.35;;;;;;;;;;5036700;28;20064;-73
2022/10/19 08:22:11;;;;;;;33.38;19.35;;;;;;;;;;5036680;28;20024;-74
2022/10/19 08:24:38;;;;;;;36.42;21.08;;;;;;;;;;5019131;28;20046;-74
2022/10/19 08:27:04;;;;;;;36.72;19.13;;;;;;;;;;5036764;28;20431;-74
2022/10/19 08:29:30;;;;;;;35.78;18.38;;;;;;;;;;5036596;28;20029;-74
2022/10/19 08:31:56;;;;;;;33.83;18.30;;;;;;;;;;5036601;28;20040;-74
2022/10/19 08:34:22;;;;;;;26.77;17.80;;;;;;;;;;5036690;28;20088;-74
2022/10/19 08:36:48;;;;;;;31.45;18.55;;;;;;;;;;5036579;28;20400;-74
2022/10/19 08:39:16;;;;;;;27.13;17.17;;;;;;;;;;5036642;28;20095;-73
2022/10/19 08:41:52;;;;;;;28.55;16.63;;;;;;;;;;5036519;28;20091;-73
2022/10/19 08:44:27;;;;;;;26.92;16.67;;;;;;;;;;5036461;28;20487;-73
2022/10/19 08:46:54;;;;;;;28.48;16.65;;;;;;;;;;5036664;28;20033;-73
2022/10/19 08:49:22;;;;;;;27.20;16.17;;;;;;;;;;5036473;28;20032;-74
2022/10/19 08:51:52;;;;;;;28.27;15.80;;;;;;;;;;5037892;28;20034;-74
2022/10/19 08:54:18;;;;;;;29.10;16.30;;;;;;;;;;5022178;28;20486;-74
2022/10/19 08:56:52;;;;;;;31.85;17.30;;;;;;;;;;5039943;28;20047;-73
2022/10/19 08:59:37;;;;;;;33.75;16.45;;;;;;;;;;5040178;28;20063;-74
2022/10/19 09:02:20;;;;;;;37.70;16.75;;;;;;;;;;5039903;28;20032;-73
2022/10/19 09:04:48;;;;;;;23.55;15.13;;;;;;;;;;5040037;28;20024;-73
2022/10/19 09:07:22;;;;;;;32.50;15.93;;;;;;;;;;5039791;28;20029;-73
2022/10/19 09:09:50;;;;;;;25.02;16.95;;;;;;;;;;5039757;28;20028;-74
2022/10/19 09:12:18;;;;;;;34.45;17.80;;;;;;;;;;5039750;28;20025;-74
2022/10/19 09:14:53;;;;;;;33.13;18.63;;;;;;;;;;5039742;28;20029;-74
2022/10/19 09:17:19;;;;;;;37.13;19.95;;;;;;;;;;5039619;28;20025;-73
2022/10/19 09:19:45;;;;;;;32.47;20.83;;;;;;;;;;5039613;28;20024;-74
2022/10/19 09:22:18;;;;;;;27.92;19.85;;;;;;;;;;5039434;28;20029;-73
2022/10/19 09:24:44;;;;;;;33.00;19.77;;;;;;;;;;5039564;28;20112;-73
2022/10/19 09:27:16;;;;;;;30.77;19.52;;;;;;;;;;5039574;28;20053;-73
2022/10/19 09:29:50;;;;;;;29.15;19.55;;;;;;;;;;5039355;28;20104;-74
2022/10/19 09:32:21;;;;;;;34.95;19.77;;;;;;;;;;5039423;28;20022;-74
2022/10/19 09:34:54;;;;;;;29.02;20.48;;;;;;;;;;5039573;28;20025;-73
2022/10/19 09:37:21;;;;;;;31.38;20.17;;;;;;;;;;5039447;28;20025;-73
2022/10/19 09:39:47;;;;;;;40.67;26.45;;;;;;;;;;5039386;28;20033;-73
2022/10/19 09:42:23;;;;;;;501.40;52.08;;;;;;;;;;5038947;28;20113;-74
2022/10/19 09:44:52;;;;;;;96.65;28.83;;;;;;;;;;5039009;28;20041;-74
2022/10/19 09:47:35;;;;;;;100.13;29.15;;;;;;;;;;5039085;28;20032;-74
2022/10/19 09:50:06;;;;;;;32.20;19.27;;;;;;;;;;5021240;28;20044;-74
2022/10/19 09:52:39;;;;;;;33.25;19.75;;;;;;;;;;5039174;28;20037;-74
2022/10/19 09:55:06;;;;;;;35.33;19.60;;;;;;;;;;5021226;28;20040;-74
2022/10/19 09:57:32;;;;;;;40.33;20.27;;;;;;;;;;5038789;28;20037;-74
2022/10/19 09:59:58;;;;;;;30.52;17.98;;;;;;;;;;5038603;28;20044;-74
2022/10/19 10:02:31;;;;;;;28.40;19.15;;;;;;;;;;5020824;28;20030;-74
2022/10/19 10:05:05;;;;;;;69.90;20.65;;;;;;;;;;5038773;28;20025;-74
2022/10/19 10:07:38;;;;;;;36.92;19.27;;;;;;;;;;5038561;28;20296;-74
2022/10/19 10:10:24;;;;;;;29.40;18.25;;;;;;;;;;5038699;28;20029;-74
2022/10/19 10:12:52;;;;;;;28.23;17.75;;;;;;;;;;5038578;28;20028;-74
2022/10/19 10:15:23;;;;;;;29.88;17.48;;;;;;;;;;5038517;28;20034;-73
2022/10/19 10:17:50;;;;;;;35.85;23.45;;;;;;;;;;5038794;28;20025;-74
2022/10/19 10:20:26;;;;;;;27.80;17.95;;;;;;;;;;5038463;28;20065;-74
2022/10/19 10:22:57;;;;;;;30.40;18.90;;;;;;;;;;5038167;28;20077;-74
2022/10/19 10:25:25;;;;;;;31.77;19.03;;;;;;;;;;5038537;28;20022;-74
2022/10/19 10:27:59;;;;;;;25.15;18.15;;;;;;;;;;5038531;28;20013;-74
2022/10/19 10:30:26;;;;;;;31.85;18.85;;;;;;;;;;5038280;28;20022;-74
2022/10/19 10:32:53;;;;;;;37.25;20.33;;;;;;;;;;5038140;28;20411;-74
2022/10/19 10:35:23;;;;;;;31.35;19.70;;;;;;;;;;5037150;28;20026;-73
2022/10/19 10:37:49;;;;;;;37.42;21.40;;;;;;;;;;5038144;28;20022;-73
2022/10/19 10:40:35;;;;;;;28.98;19.45;;;;;;;;;;5037775;28;20426;-73
2022/10/19 10:43:12;;;;;;;34.83;19.80;;;;;;;;;;5037781;28;20052;-74
2022/10/19 10:45:40;;;;;;;35.60;21.00;;;;;;;;;;5037650;28;20124;-74
2022/10/19 10:48:27;;;;;;;29.27;22.15;;;;;;;;;;5037608;28;20021;-74
2022/10/19 10:50:53;;;;;;;32.58;20.70;;;;;;;;;;5037910;28;20079;-74
2022/10/19 10:53:31;;;;;;;29.58;20.08;;;;;;;;;;5037522;28;20424;-74
2022/10/19 10:55:57;;;;;;;30.33;20.13;;;;;;;;;;5037698;28;20120;-74
2022/10/19 10:58:46;;;;;;;26.65;18.65;;;;;;;;;;5037511;28;20087;-74
2022/10/19 11:01:22;;;;;;;26.77;18.90;;;;;;;;;;5037661;28;20071;-74
2022/10/19 11:03:52;;;;;;;29.73;19.20;;;;;;;;;;5020124;28;20119;-74
2022/10/19 11:06:20;;;;;;;41.90;19.27;;;;;;;;;;5036293;28;20416;-73
2022/10/19 11:08:55;;;;;;;27.83;18.10;;;;;;;;;;5037173;28;20037;-73
2022/10/19 11:11:28;;;;;;;32.17;18.50;;;;;;;;;;5020342;28;20309;-73
2022/10/19 11:14:06;;;;;;;33.45;19.10;;;;;;;;;;5036337;28;20419;-76
2022/10/19 11:16:40;;;;;;;37.78;18.70;;;;;;;;;;5037464;28;20036;-76
2022/10/19 11:19:12;;;;;;;28.60;17.92;;;;;;;;;;5030458;28;20030;-75
2022/10/19 11:22:10;;;;;;;27.33;17.42;;;;;;;;;;5028970;28;20418;-69
2022/10/19 11:24:37;;;;;;;30.55;18.65;;;;;;;;;;4957037;28;20552;-69
2022/10/19 11:27:06;;;;;;;32.40;19.55;;;;;;;;;;4957185;29;20035;-69
2022/10/19 11:29:32;;;;;;;27.30;18.30;;;;;;;;;;4956730;29;20019;-75
2022/10/19 11:31:58;;;;;;;33.45;19.05;;;;;;;;;;4956487;29;20590;-67
2022/10/19 11:34:42;;;;;;;31.55;19.90;;;;;;;;;;4956169;29;20043;-67
2022/10/19 11:37:11;;;;;;;24.83;19.20;;;;;;;;;;4957076;29;20337;-68
2022/10/19 11:39:51;;;;;;;28.02;19.75;;;;;;;;;;4956807;29;20400;-67
2022/10/19 11:42:18;;;;;;;28.98;19.23;;;;;;;;;;4957060;28;20027;-67
2022/10/19 11:45:12;;;;;;;30.77;19.00;;;;;;;;;;4956437;29;20074;-68
2022/10/19 11:47:49;;;;;;;30.90;18.08;;;;;;;;;;4956694;29;20117;-67
2022/10/19 11:50:15;;;;;;;31.63;20.67;;;;;;;;;;4956657;28;20035;-67
2022/10/19 11:53:00;;;;;;;33.67;18.25;;;;;;;;;;4956270;29;20341;-67
2022/10/19 11:55:32;;;;;;;28.55;17.55;;;;;;;;;;4957115;28;20028;-69
2022/10/19 11:57:58;;;;;;;29.45;17.23;;;;;;;;;;4957010;28;20114;-69
2022/10/19 12:00:25;;;;;;;29.60;17.38;;;;;;;;;;4992620;28;20403;-69
2022/10/19 12:03:03;;;;;;;27.98;17.77;;;;;;;;;;5017046;28;20067;-69
2022/10/19 12:05:39;;;;;;;24.30;16.90;;;;;;;;;;5026484;28;20280;-69
2022/10/19 12:08:11;;;;;;;25.33;17.55;;;;;;;;;;5036723;28;20024;-69
2022/10/19 12:10:55;;;;;;;28.33;17.52;;;;;;;;;;5036789;28;20022;-69
2022/10/19 12:13:26;;;;;;;26.52;15.70;;;;;;;;;;5036897;28;20025;-69
2022/10/19 12:15:53;;;;;;;27.90;16.42;;;;;;;;;;5036647;28;20136;-68
2022/10/19 12:18:22;;;;;;;26.73;16.60;;;;;;;;;;5036634;28;20026;-69
2022/10/19 12:20:53;;;;;;;29.67;17.27;;;;;;;;;;5036678;28;20029;-69
2022/10/19 12:23:22;;;;;;;24.60;16.35;;;;;;;;;;5036499;28;20045;-69
2022/10/19 12:25:48;;;;;;;25.38;14.27;;;;;;;;;;5036640;28;20033;-69
2022/10/19 12:28:21;;;;;;;24.30;13.68;;;;;;;;;;5040106;28;20399;-69
2022/10/19 12:30:47;;;;;;;23.25;14.88;;;;;;;;;;5040349;28;20021;-69
2022/10/19 12:33:13;;;;;;;18.02;13.63;;;;;;;;;;5040334;28;20435;-69
2022/10/19 12:35:54;;;;;;;25.38;13.43;;;;;;;;;;5040302;28;20029;-69
2022/10/19 12:38:20;;;;;;;20.80;12.35;;;;;;;;;;5040579;28;20052;-69
2022/10/19 12:40:53;;;;;;;14.82;11.57;;;;;;;;;;5040233;28;20423;-68
2022/10/19 12:43:25;;;;;;;17.08;12.15;;;;;;;;;;5040267;28;20084;-69
2022/10/19 12:45:59;;;;;;;16.58;10.45;;;;;;;;;;5040184;28;20101;-69
2022/10/19 12:48:25;;;;;;;17.95;10.27;;;;;;;;;;5039994;28;20456;-69
2022/10/19 12:50:52;;;;;;;16.05;9.60;;;;;;;;;;5039972;28;20319;-69
2022/10/19 12:53:37;;;;;;;11.90;8.50;;;;;;;;;;5040234;28;20500;-69
2022/10/19 12:56:05;;;;;;;15.32;8.00;;;;;;;;;;5039945;28;20039;-69
2022/10/19 12:58:34;;;;;;;14.02;8.10;;;;;;;;;;5040011;28;20026;-69
2022/10/19 13:01:01;;;;;;;17.55;8.77;;;;;;;;;;5039921;28;20071;-69
2022/10/19 13:03:32;;;;;;;12.23;7.50;;;;;;;;;;5039749;28;20022;-69
2022/10/19 13:06:00;;;;;;;16.80;7.00;;;;;;;;;;5039532;28;20040;-69
2022/10/19 13:08:35;;;;;;;14.15;6.85;;;;;;;;;;5038911;28;20017;-68
2022/10/19 13:11:13;;;;;;;12.15;6.90;;;;;;;;;;5039336;28;20067;-69
2022/10/19 13:13:58;;;;;;;10.32;5.38;;;;;;;;;;5039892;28;20315;-69
2022/10/19 13:16:29;;;;;;;10.88;6.38;;;;;;;;;;5039179;28;20382;-69
2022/10/19 13:18:55;;;;;;;;;;;;;;;;;;5039825;28;20331;-69
2022/10/19 13:21:40;;;;;;;9.68;5.93;;;;;;;;;;5039470;28;19920;-69
2022/10/19 13:24:19;;;;;;;11.25;6.30;;;;;;;;;;5039432;28;20042;-69
2022/10/19 13:26:45;;;;;;;11.32;6.05;;;;;;;;;;5039543;28;20025;-69
2022/10/19 13:29:27;;;;;;;12.27;5.53;;;;;;;;;;5039391;28;20052;-68
2022/10/19 13:31:53;;;;;;;11.10;5.85;;;;;;;;;;5039290;28;20021;-69
2022/10/19 13:34:19;;;;;;;10.05;5.68;;;;;;;;;;5039200;28;20056;-68
2022/10/19 13:37:02;;;;;;;9.88;5.50;;;;;;;;;;5039122;28;20044;-68
2022/10/19 13:39:28;;;;;;;12.63;5.88;;;;;;;;;;5038177;28;20506;-69
2022/10/19 13:41:56;;;;;;;11.90;5.80;;;;;;;;;;5038577;28;20025;-69
2022/10/19 13:44:23;;;;;;;23.15;5.57;;;;;;;;;;5038798;28;20117;-68
2022/10/19 13:47:08;;;;;;;13.90;6.57;;;;;;;;;;5038349;28;20025;-69
2022/10/19 13:49:53;;;;;;;10.57;5.88;;;;;;;;;;5039142;28;20028;-69
2022/10/19 13:52:34;;;;;;;13.10;6.53;;;;;;;;;;5038473;28;20037;-69
2022/10/19 13:55:27;;;;;;;12.67;6.63;;;;;;;;;;5038847;28;20446;-68
2022/10/19 13:57:53;;;;;;;13.50;7.43;;;;;;;;;;5039004;28;20258;-69
2022/10/19 14:00:23;;;;;;;15.20;6.93;;;;;;;;;;5038018;28;20083;-68
2022/10/19 14:02:54;;;;;;;13.75;6.38;;;;;;;;;;5037659;28;20037;-70
2022/10/19 14:05:39;;;;;;;14.45;6.78;;;;;;;;;;5038525;28;20358;-70
2022/10/19 14:08:23;;;;;;;12.98;6.47;;;;;;;;;;5038860;28;20041;-69
2022/10/19 14:10:51;;;;;;;11.63;6.38;;;;;;;;;;5038763;28;20029;-69
2022/10/19 14:13:21;;;;;;;13.90;6.90;;;;;;;;;;5038829;28;20022;-70
2022/10/19 14:15:57;;;;;;;11.13;7.32;;;;;;;;;;5038585;28;20435;-69
2022/10/19 14:18:34;;;;;;;12.82;7.43;;;;;;;;;;5038510;28;20033;-69
2022/10/19 14:21:05;;;;;;;12.68;7.50;;;;;;;;;;5038566;28;20346;-69
2022/10/19 14:23:33;;;;;;;12.85;7.57;;;;;;;;;;5038423;28;20050;-69
2022/10/19 14:26:19;;;;;;;18.83;9.10;;;;;;;;;;5038526;28;20104;-70
2022/10/19 14:28:51;;;;;;;17.33;8.88;;;;;;;;;;5038130;28;20053;-70
2022/10/19 14:31:18;;;;;;;15.65;7.93;;;;;;;;;;5038341;28;20064;-70